sensor_id;sensor_type;location;lat;lon;timestamp;P1;durP1;ratioP1;P2;durP2;ratioP2
24467;SDS011;12634;50.852;5.676;2023-05-10T00:02:11;11.25;;;9.95;;
24467;SDS011;12634;50.852;5.676;2023-05-10T00:04:38;12.20;;;8.82;;
24467;SDS011;12634;50.852;5.676;2023-05-10T00:07:05;11.32;;;9.63;;
24467;SDS011;12634;50.852;5.676;2023-05-10T00:09:34;10.70;;;8.80;;
24467;SDS011;12634;50.852;5.676;2023-05-10T00:12:01;9.45;;;8.10;;
24467;SDS011;12634;50.852;5.676;2023-05-10T00:14:28;9.75;;;8.20;;
24467;SDS011;12634;50.852;5.676;2023-05-10T00:16:55;10.85;;;8.68;;
24467;SDS011;12634;50.852;5.676;2023-05-10T00:19:22;10.95;;;7.72;;
24467;SDS011;12634;50.852;5.676;2023-05-10T00:21:49;12.32;;;9.20;;
24467;SDS011;12634;50.852;5.676;2023-05-10T00:24:16;11.82;;;9.35;;
24467;SDS011;12634;50.852;5.676;2023-05-10T00:26:45;13.70;;;8.82;;
24467;SDS011;12634;50.852;5.676;2023-05-10T00:29:12;11.68;;;9.30;;
24467;SDS011;12634;50.852;5.676;2023-05-10T00:31:39;11.45;;;9.07;;
24467;SDS011;12634;50.852;5.676;2023-05-10T00:34:06;10.40;;;8.20;;
24467;SDS011;12634;50.852;5.676;2023-05-10T00:36:33;10.63;;;8.85;;
24467;SDS011;12634;50.852;5.676;2023-05-10T00:39:00;10.70;;;8.23;;
24467;SDS011;12634;50.852;5.676;2023-05-10T00:41:28;8.98;;;7.50;;
24467;SDS011;12634;50.852;5.676;2023-05-10T00:43:58;9.68;;;7.57;;
24467;SDS011;12634;50.852;5.676;2023-05-10T00:46:27;8.40;;;7.18;;
24467;SDS011;12634;50.852;5.676;2023-05-10T00:48:54;9.98;;;7.35;;
24467;SDS011;12634;50.852;5.676;2023-05-10T00:51:22;9.18;;;6.85;;
24467;SDS011;12634;50.852;5.676;2023-05-10T00:53:49;11.30;;;6.97;;
24467;SDS011;12634;50.852;5.676;2023-05-10T00:56:17;7.68;;;5.80;;
24467;SDS011;12634;50.852;5.676;2023-05-10T00:58:45;9.02;;;6.65;;
24467;SDS011;12634;50.852;5.676;2023-05-10T01:01:14;8.57;;;6.88;;
24467;SDS011;12634;50.852;5.676;2023-05-10T01:03:41;6.15;;;5.55;;
24467;SDS011;12634;50.852;5.676;2023-05-10T01:06:08;7.50;;;5.70;;
24467;SDS011;12634;50.852;5.676;2023-05-10T01:08:36;6.30;;;5.45;;
24467;SDS011;12634;50.852;5.676;2023-05-10T01:11:03;7.65;;;5.28;;
24467;SDS011;12634;50.852;5.676;2023-05-10T01:13:31;6.43;;;5.60;;
24467;SDS011;12634;50.852;5.676;2023-05-10T01:16:01;8.85;;;5.97;;
24467;SDS011;12634;50.852;5.676;2023-05-10T01:18:30;8.85;;;6.32;;
24467;SDS011;12634;50.852;5.676;2023-05-10T01:21:01;10.77;;;5.88;;
24467;SDS011;12634;50.852;5.676;2023-05-10T01:27:14;8.68;;;5.88;;
24467;SDS011;12634;50.852;5.676;2023-05-10T01:30:01;7.90;;;4.85;;
24467;SDS011;12634;50.852;5.676;2023-05-10T01:32:41;12.10;;;6.15;;
24467;SDS011;12634;50.852;5.676;2023-05-10T01:35:14;7.30;;;6.10;;
24467;SDS011;12634;50.852;5.676;2023-05-10T01:37:46;7.60;;;5.57;;
24467;SDS011;12634;50.852;5.676;2023-05-10T01:40:19;11.55;;;6.07;;
24467;SDS011;12634;50.852;5.676;2023-05-10T01:42:54;7.85;;;6.22;;
24467;SDS011;12634;50.852;5.676;2023-05-10T01:45:28;8.45;;;5.28;;
24467;SDS011;12634;50.852;5.676;2023-05-10T01:48:03;8.18;;;5.57;;
24467;SDS011;12634;50.852;5.676;2023-05-10T01:50:33;8.23;;;5.40;;
24467;SDS011;12634;50.852;5.676;2023-05-10T01:53:02;7.53;;;5.25;;
24467;SDS011;12634;50.852;5.676;2023-05-10T01:55:34;8.77;;;6.18;;
24467;SDS011;12634;50.852;5.676;2023-05-10T01:58:05;11.15;;;5.57;;
24467;SDS011;12634;50.852;5.676;2023-05-10T02:00:35;7.50;;;5.72;;
24467;SDS011;12634;50.852;5.676;2023-05-10T02:03:07;9.90;;;6.20;;
24467;SDS011;12634;50.852;5.676;2023-05-10T02:05:36;11.82;;;7.15;;
24467;SDS011;12634;50.852;5.676;2023-05-10T02:08:05;8.05;;;6.78;;
24467;SDS011;12634;50.852;5.676;2023-05-10T02:10:33;10.45;;;8.23;;
24467;SDS011;12634;50.852;5.676;2023-05-10T02:13:02;9.55;;;8.02;;
24467;SDS011;12634;50.852;5.676;2023-05-10T02:15:31;10.65;;;7.97;;
24467;SDS011;12634;50.852;5.676;2023-05-10T02:17:59;12.52;;;8.27;;
24467;SDS011;12634;50.852;5.676;2023-05-10T02:20:29;10.35;;;7.25;;
24467;SDS011;12634;50.852;5.676;2023-05-10T02:22:58;11.23;;;8.23;;
24467;SDS011;12634;50.852;5.676;2023-05-10T02:25:27;11.68;;;8.65;;
24467;SDS011;12634;50.852;5.676;2023-05-10T02:27:56;12.00;;;7.93;;
24467;SDS011;12634;50.852;5.676;2023-05-10T02:30:26;14.40;;;7.72;;
24467;SDS011;12634;50.852;5.676;2023-05-10T02:32:53;15.52;;;8.55;;
24467;SDS011;12634;50.852;5.676;2023-05-10T02:35:24;15.20;;;7.72;;
24467;SDS011;12634;50.852;5.676;2023-05-10T02:37:54;14.13;;;8.57;;
24467;SDS011;12634;50.852;5.676;2023-05-10T02:40:22;14.23;;;8.48;;
24467;SDS011;12634;50.852;5.676;2023-05-10T02:42:52;15.13;;;8.70;;
24467;SDS011;12634;50.852;5.676;2023-05-10T02:45:23;17.58;;;8.65;;
24467;SDS011;12634;50.852;5.676;2023-05-10T02:47:54;15.80;;;8.10;;
24467;SDS011;12634;50.852;5.676;2023-05-10T02:50:22;17.50;;;9.95;;
24467;SDS011;12634;50.852;5.676;2023-05-10T02:52:52;21.35;;;11.13;;
24467;SDS011;12634;50.852;5.676;2023-05-10T02:55:26;16.85;;;10.38;;
24467;SDS011;12634;50.852;5.676;2023-05-10T02:58:00;17.05;;;11.27;;
24467;SDS011;12634;50.852;5.676;2023-05-10T03:00:28;19.23;;;11.30;;
24467;SDS011;12634;50.852;5.676;2023-05-10T03:02:55;20.67;;;12.52;;
24467;SDS011;12634;50.852;5.676;2023-05-10T03:05:22;18.52;;;11.13;;
24467;SDS011;12634;50.852;5.676;2023-05-10T03:07:49;20.50;;;12.02;;
24467;SDS011;12634;50.852;5.676;2023-05-10T03:10:18;19.35;;;11.48;;
24467;SDS011;12634;50.852;5.676;2023-05-10T03:12:54;19.30;;;11.38;;
24467;SDS011;12634;50.852;5.676;2023-05-10T03:15:30;17.65;;;10.95;;
24467;SDS011;12634;50.852;5.676;2023-05-10T03:18:07;17.13;;;10.43;;
24467;SDS011;12634;50.852;5.676;2023-05-10T03:20:40;15.98;;;10.45;;
24467;SDS011;12634;50.852;5.676;2023-05-10T03:23:11;16.17;;;10.05;;
24467;SDS011;12634;50.852;5.676;2023-05-10T03:25:45;14.45;;;10.55;;
24467;SDS011;12634;50.852;5.676;2023-05-10T03:28:15;15.38;;;10.95;;
24467;SDS011;12634;50.852;5.676;2023-05-10T03:30:44;16.88;;;10.27;;
24467;SDS011;12634;50.852;5.676;2023-05-10T03:33:12;17.17;;;11.10;;
24467;SDS011;12634;50.852;5.676;2023-05-10T03:35:39;16.27;;;10.35;;
24467;SDS011;12634;50.852;5.676;2023-05-10T03:38:06;16.10;;;10.13;;
24467;SDS011;12634;50.852;5.676;2023-05-10T03:40:33;14.50;;;10.10;;
24467;SDS011;12634;50.852;5.676;2023-05-10T03:43:02;17.60;;;9.98;;
24467;SDS011;12634;50.852;5.676;2023-05-10T03:45:29;18.95;;;11.15;;
24467;SDS011;12634;50.852;5.676;2023-05-10T03:47:56;22.05;;;11.10;;
24467;SDS011;12634;50.852;5.676;2023-05-10T03:50:23;18.05;;;10.10;;
24467;SDS011;12634;50.852;5.676;2023-05-10T03:52:51;18.02;;;11.05;;
24467;SDS011;12634;50.852;5.676;2023-05-10T03:55:18;18.25;;;10.57;;
24467;SDS011;12634;50.852;5.676;2023-05-10T03:57:45;17.67;;;11.15;;
24467;SDS011;12634;50.852;5.676;2023-05-10T04:00:16;16.20;;;10.75;;
24467;SDS011;12634;50.852;5.676;2023-05-10T04:02:43;18.60;;;10.35;;
24467;SDS011;12634;50.852;5.676;2023-05-10T04:05:10;19.67;;;10.95;;
24467;SDS011;12634;50.852;5.676;2023-05-10T04:07:37;14.25;;;9.70;;
24467;SDS011;12634;50.852;5.676;2023-05-10T04:10:05;15.20;;;10.45;;
24467;SDS011;12634;50.852;5.676;2023-05-10T04:12:32;17.67;;;11.18;;
24467;SDS011;12634;50.852;5.676;2023-05-10T04:14:59;18.17;;;10.68;;
24467;SDS011;12634;50.852;5.676;2023-05-10T04:17:28;22.15;;;11.15;;
24467;SDS011;12634;50.852;5.676;2023-05-10T04:19:56;18.73;;;10.57;;
24467;SDS011;12634;50.852;5.676;2023-05-10T04:22:23;18.40;;;10.07;;
24467;SDS011;12634;50.852;5.676;2023-05-10T04:24:50;16.75;;;10.20;;
24467;SDS011;12634;50.852;5.676;2023-05-10T04:27:17;14.85;;;9.93;;
24467;SDS011;12634;50.852;5.676;2023-05-10T04:29:44;15.55;;;11.00;;
24467;SDS011;12634;50.852;5.676;2023-05-10T04:32:12;15.85;;;10.30;;
24467;SDS011;12634;50.852;5.676;2023-05-10T04:34:40;15.30;;;11.23;;
24467;SDS011;12634;50.852;5.676;2023-05-10T04:37:07;20.60;;;12.38;;
24467;SDS011;12634;50.852;5.676;2023-05-10T04:39:34;17.88;;;11.68;;
24467;SDS011;12634;50.852;5.676;2023-05-10T04:42:02;19.05;;;11.95;;
24467;SDS011;12634;50.852;5.676;2023-05-10T04:44:30;20.80;;;11.70;;
24467;SDS011;12634;50.852;5.676;2023-05-10T04:46:57;19.85;;;11.98;;
24467;SDS011;12634;50.852;5.676;2023-05-10T04:49:25;19.17;;;12.75;;
24467;SDS011;12634;50.852;5.676;2023-05-10T04:51:53;19.88;;;11.88;;
24467;SDS011;12634;50.852;5.676;2023-05-10T04:54:20;18.30;;;12.88;;
24467;SDS011;12634;50.852;5.676;2023-05-10T04:56:47;18.73;;;13.57;;
24467;SDS011;12634;50.852;5.676;2023-05-10T04:59:14;17.92;;;14.52;;
24467;SDS011;12634;50.852;5.676;2023-05-10T05:01:42;18.85;;;12.43;;
24467;SDS011;12634;50.852;5.676;2023-05-10T05:04:09;18.00;;;12.20;;
24467;SDS011;12634;50.852;5.676;2023-05-10T05:06:36;18.27;;;13.38;;
24467;SDS011;12634;50.852;5.676;2023-05-10T05:09:04;19.90;;;12.93;;
24467;SDS011;12634;50.852;5.676;2023-05-10T05:11:32;24.92;;;11.73;;
24467;SDS011;12634;50.852;5.676;2023-05-10T05:13:59;15.90;;;11.20;;
24467;SDS011;12634;50.852;5.676;2023-05-10T05:16:26;15.82;;;11.20;;
24467;SDS011;12634;50.852;5.676;2023-05-10T05:18:53;17.30;;;11.63;;
24467;SDS011;12634;50.852;5.676;2023-05-10T05:21:21;17.50;;;10.68;;
24467;SDS011;12634;50.852;5.676;2023-05-10T05:23:49;15.00;;;10.52;;
24467;SDS011;12634;50.852;5.676;2023-05-10T05:26:17;16.25;;;10.57;;
24467;SDS011;12634;50.852;5.676;2023-05-10T05:28:44;13.77;;;9.90;;
24467;SDS011;12634;50.852;5.676;2023-05-10T05:31:13;15.35;;;10.27;;
24467;SDS011;12634;50.852;5.676;2023-05-10T05:33:40;14.23;;;9.90;;
24467;SDS011;12634;50.852;5.676;2023-05-10T05:36:07;14.18;;;10.15;;
24467;SDS011;12634;50.852;5.676;2023-05-10T05:38:35;13.25;;;9.25;;
24467;SDS011;12634;50.852;5.676;2023-05-10T05:41:02;13.50;;;9.13;;
24467;SDS011;12634;50.852;5.676;2023-05-10T05:43:31;11.85;;;8.15;;
24467;SDS011;12634;50.852;5.676;2023-05-10T05:45:58;9.38;;;7.28;;
24467;SDS011;12634;50.852;5.676;2023-05-10T05:48:25;9.15;;;6.40;;
24467;SDS011;12634;50.852;5.676;2023-05-10T05:50:54;11.10;;;7.20;;
24467;SDS011;12634;50.852;5.676;2023-05-10T05:53:22;8.88;;;6.47;;
24467;SDS011;12634;50.852;5.676;2023-05-10T05:55:52;10.68;;;6.80;;
24467;SDS011;12634;50.852;5.676;2023-05-10T05:58:20;9.57;;;6.10;;
24467;SDS011;12634;50.852;5.676;2023-05-10T06:00:49;9.23;;;6.65;;
24467;SDS011;12634;50.852;5.676;2023-05-10T06:03:17;8.48;;;6.25;;
24467;SDS011;12634;50.852;5.676;2023-05-10T06:05:44;11.90;;;7.03;;
24467;SDS011;12634;50.852;5.676;2023-05-10T06:08:11;7.95;;;6.30;;
24467;SDS011;12634;50.852;5.676;2023-05-10T06:10:38;10.25;;;6.47;;
24467;SDS011;12634;50.852;5.676;2023-05-10T06:13:05;10.25;;;6.95;;
24467;SDS011;12634;50.852;5.676;2023-05-10T06:15:32;10.63;;;6.78;;
24467;SDS011;12634;50.852;5.676;2023-05-10T06:18:01;9.27;;;6.65;;
24467;SDS011;12634;50.852;5.676;2023-05-10T06:20:28;10.68;;;7.80;;
24467;SDS011;12634;50.852;5.676;2023-05-10T06:22:56;9.65;;;6.93;;
24467;SDS011;12634;50.852;5.676;2023-05-10T06:25:23;13.82;;;9.38;;
24467;SDS011;12634;50.852;5.676;2023-05-10T06:27:51;14.52;;;9.45;;
24467;SDS011;12634;50.852;5.676;2023-05-10T06:30:23;19.17;;;11.73;;
24467;SDS011;12634;50.852;5.676;2023-05-10T06:32:53;19.58;;;12.32;;
24467;SDS011;12634;50.852;5.676;2023-05-10T06:35:22;18.00;;;11.98;;
24467;SDS011;12634;50.852;5.676;2023-05-10T06:37:49;17.83;;;11.82;;
24467;SDS011;12634;50.852;5.676;2023-05-10T06:40:17;19.98;;;12.63;;
24467;SDS011;12634;50.852;5.676;2023-05-10T06:42:44;23.02;;;15.07;;
24467;SDS011;12634;50.852;5.676;2023-05-10T06:45:12;24.05;;;14.73;;
24467;SDS011;12634;50.852;5.676;2023-05-10T06:47:40;21.83;;;13.18;;
24467;SDS011;12634;50.852;5.676;2023-05-10T06:50:08;20.15;;;12.50;;
24467;SDS011;12634;50.852;5.676;2023-05-10T06:52:37;18.65;;;11.32;;
24467;SDS011;12634;50.852;5.676;2023-05-10T06:55:05;20.67;;;12.48;;
24467;SDS011;12634;50.852;5.676;2023-05-10T06:57:33;18.60;;;11.93;;
24467;SDS011;12634;50.852;5.676;2023-05-10T07:00:00;22.35;;;12.65;;
24467;SDS011;12634;50.852;5.676;2023-05-10T07:02:29;19.98;;;12.02;;
24467;SDS011;12634;50.852;5.676;2023-05-10T07:04:56;23.55;;;12.95;;
24467;SDS011;12634;50.852;5.676;2023-05-10T07:07:23;20.85;;;12.15;;
24467;SDS011;12634;50.852;5.676;2023-05-10T07:09:52;19.70;;;12.75;;
24467;SDS011;12634;50.852;5.676;2023-05-10T07:12:19;20.73;;;11.57;;
24467;SDS011;12634;50.852;5.676;2023-05-10T07:14:46;20.08;;;12.30;;
24467;SDS011;12634;50.852;5.676;2023-05-10T07:17:13;17.40;;;11.48;;
24467;SDS011;12634;50.852;5.676;2023-05-10T07:19:40;24.58;;;14.50;;
24467;SDS011;12634;50.852;5.676;2023-05-10T07:22:07;25.83;;;14.50;;
24467;SDS011;12634;50.852;5.676;2023-05-10T07:24:34;23.67;;;14.27;;
24467;SDS011;12634;50.852;5.676;2023-05-10T07:27:03;24.83;;;15.20;;
24467;SDS011;12634;50.852;5.676;2023-05-10T07:29:30;26.08;;;15.63;;
24467;SDS011;12634;50.852;5.676;2023-05-10T07:31:57;24.45;;;14.80;;
24467;SDS011;12634;50.852;5.676;2023-05-10T07:34:25;21.08;;;13.63;;
24467;SDS011;12634;50.852;5.676;2023-05-10T07:36:52;18.30;;;12.15;;
24467;SDS011;12634;50.852;5.676;2023-05-10T07:39:20;16.83;;;9.90;;
24467;SDS011;12634;50.852;5.676;2023-05-10T07:41:47;12.35;;;8.02;;
24467;SDS011;12634;50.852;5.676;2023-05-10T07:44:16;9.60;;;6.43;;
24467;SDS011;12634;50.852;5.676;2023-05-10T07:46:44;8.98;;;5.13;;
24467;SDS011;12634;50.852;5.676;2023-05-10T07:49:11;6.15;;;4.53;;
24467;SDS011;12634;50.852;5.676;2023-05-10T07:51:38;5.72;;;3.58;;
24467;SDS011;12634;50.852;5.676;2023-05-10T07:54:05;5.55;;;3.83;;
24467;SDS011;12634;50.852;5.676;2023-05-10T07:56:32;6.78;;;3.85;;
24467;SDS011;12634;50.852;5.676;2023-05-10T07:59:00;5.72;;;3.75;;
24467;SDS011;12634;50.852;5.676;2023-05-10T08:01:31;4.63;;;3.30;;
24467;SDS011;12634;50.852;5.676;2023-05-10T08:03:59;5.55;;;3.50;;
24467;SDS011;12634;50.852;5.676;2023-05-10T08:06:26;5.57;;;3.50;;
24467;SDS011;12634;50.852;5.676;2023-05-10T08:08:54;5.97;;;3.63;;
24467;SDS011;12634;50.852;5.676;2023-05-10T08:11:22;5.93;;;3.53;;
24467;SDS011;12634;50.852;5.676;2023-05-10T08:13:50;5.07;;;3.42;;
24467;SDS011;12634;50.852;5.676;2023-05-10T08:16:18;6.88;;;3.58;;
24467;SDS011;12634;50.852;5.676;2023-05-10T08:18:46;5.65;;;4.00;;
24467;SDS011;12634;50.852;5.676;2023-05-10T08:21:14;10.70;;;4.70;;
24467;SDS011;12634;50.852;5.676;2023-05-10T08:23:41;5.40;;;3.30;;
24467;SDS011;12634;50.852;5.676;2023-05-10T08:26:09;5.68;;;3.25;;
24467;SDS011;12634;50.852;5.676;2023-05-10T08:28:36;4.38;;;3.10;;
24467;SDS011;12634;50.852;5.676;2023-05-10T08:31:04;5.75;;;3.63;;
24467;SDS011;12634;50.852;5.676;2023-05-10T08:33:31;3.60;;;2.55;;
24467;SDS011;12634;50.852;5.676;2023-05-10T08:36:00;5.72;;;3.20;;
24467;SDS011;12634;50.852;5.676;2023-05-10T08:38:27;4.70;;;2.85;;
24467;SDS011;12634;50.852;5.676;2023-05-10T08:40:54;4.38;;;3.00;;
24467;SDS011;12634;50.852;5.676;2023-05-10T08:43:24;5.50;;;3.10;;
24467;SDS011;12634;50.852;5.676;2023-05-10T08:45:55;4.82;;;2.67;;
24467;SDS011;12634;50.852;5.676;2023-05-10T08:48:23;4.05;;;2.38;;
24467;SDS011;12634;50.852;5.676;2023-05-10T08:50:52;3.03;;;2.03;;
24467;SDS011;12634;50.852;5.676;2023-05-10T08:53:22;2.53;;;1.58;;
24467;SDS011;12634;50.852;5.676;2023-05-10T08:55:52;5.95;;;2.05;;
24467;SDS011;12634;50.852;5.676;2023-05-10T08:58:20;3.05;;;2.00;;
24467;SDS011;12634;50.852;5.676;2023-05-10T09:00:48;4.57;;;2.08;;
24467;SDS011;12634;50.852;5.676;2023-05-10T09:03:17;3.58;;;2.40;;
24467;SDS011;12634;50.852;5.676;2023-05-10T09:05:44;3.47;;;2.15;;
24467;SDS011;12634;50.852;5.676;2023-05-10T09:08:12;4.13;;;2.28;;
24467;SDS011;12634;50.852;5.676;2023-05-10T09:10:42;3.78;;;2.20;;
24467;SDS011;12634;50.852;5.676;2023-05-10T09:13:12;3.22;;;1.90;;
24467;SDS011;12634;50.852;5.676;2023-05-10T09:15:40;3.58;;;2.10;;
24467;SDS011;12634;50.852;5.676;2023-05-10T09:18:08;3.80;;;2.38;;
24467;SDS011;12634;50.852;5.676;2023-05-10T09:20:35;4.32;;;2.70;;
24467;SDS011;12634;50.852;5.676;2023-05-10T09:23:02;4.18;;;2.50;;
24467;SDS011;12634;50.852;5.676;2023-05-10T09:25:30;4.10;;;2.60;;
24467;SDS011;12634;50.852;5.676;2023-05-10T09:27:59;2.88;;;2.05;;
24467;SDS011;12634;50.852;5.676;2023-05-10T09:30:28;4.78;;;2.63;;
24467;SDS011;12634;50.852;5.676;2023-05-10T09:32:56;3.83;;;2.33;;
24467;SDS011;12634;50.852;5.676;2023-05-10T09:35:25;3.22;;;2.13;;
24467;SDS011;12634;50.852;5.676;2023-05-10T09:38:01;4.18;;;2.45;;
24467;SDS011;12634;50.852;5.676;2023-05-10T09:40:30;3.40;;;2.35;;
24467;SDS011;12634;50.852;5.676;2023-05-10T09:42:58;3.75;;;2.70;;
24467;SDS011;12634;50.852;5.676;2023-05-10T09:45:28;4.43;;;2.80;;
24467;SDS011;12634;50.852;5.676;2023-05-10T09:47:56;4.18;;;2.78;;
24467;SDS011;12634;50.852;5.676;2023-05-10T09:50:24;4.10;;;2.90;;
24467;SDS011;12634;50.852;5.676;2023-05-10T09:52:52;3.97;;;2.40;;
24467;SDS011;12634;50.852;5.676;2023-05-10T09:55:21;3.90;;;2.60;;
24467;SDS011;12634;50.852;5.676;2023-05-10T09:57:58;5.10;;;2.55;;
24467;SDS011;12634;50.852;5.676;2023-05-10T10:00:27;4.30;;;2.97;;
24467;SDS011;12634;50.852;5.676;2023-05-10T10:02:55;6.55;;;2.95;;
24467;SDS011;12634;50.852;5.676;2023-05-10T10:05:27;4.15;;;3.00;;
24467;SDS011;12634;50.852;5.676;2023-05-10T10:07:55;4.32;;;2.92;;
24467;SDS011;12634;50.852;5.676;2023-05-10T10:10:23;4.57;;;3.45;;
24467;SDS011;12634;50.852;5.676;2023-05-10T10:12:51;3.72;;;2.70;;
24467;SDS011;12634;50.852;5.676;2023-05-10T10:15:19;3.90;;;3.05;;
24467;SDS011;12634;50.852;5.676;2023-05-10T10:17:48;5.03;;;3.38;;
24467;SDS011;12634;50.852;5.676;2023-05-10T10:20:16;4.40;;;3.33;;
24467;SDS011;12634;50.852;5.676;2023-05-10T10:22:44;5.10;;;3.65;;
24467;SDS011;12634;50.852;5.676;2023-05-10T10:25:12;5.43;;;3.58;;
24467;SDS011;12634;50.852;5.676;2023-05-10T10:27:43;4.60;;;3.60;;
24467;SDS011;12634;50.852;5.676;2023-05-10T10:30:19;5.85;;;3.90;;
24467;SDS011;12634;50.852;5.676;2023-05-10T10:32:59;6.53;;;4.50;;
24467;SDS011;12634;50.852;5.676;2023-05-10T10:35:38;7.72;;;4.22;;
24467;SDS011;12634;50.852;5.676;2023-05-10T10:38:07;7.10;;;4.90;;
24467;SDS011;12634;50.852;5.676;2023-05-10T10:40:35;8.93;;;5.43;;
24467;SDS011;12634;50.852;5.676;2023-05-10T10:43:21;5.43;;;4.53;;
24467;SDS011;12634;50.852;5.676;2023-05-10T10:46:13;6.28;;;4.22;;
24467;SDS011;12634;50.852;5.676;2023-05-10T10:48:47;5.97;;;4.68;;
24467;SDS011;12634;50.852;5.676;2023-05-10T10:51:16;8.80;;;5.20;;
24467;SDS011;12634;50.852;5.676;2023-05-10T10:53:43;8.25;;;4.93;;
24467;SDS011;12634;50.852;5.676;2023-05-10T10:56:11;8.75;;;5.13;;
24467;SDS011;12634;50.852;5.676;2023-05-10T10:58:40;7.40;;;5.45;;
24467;SDS011;12634;50.852;5.676;2023-05-10T11:01:18;9.95;;;5.40;;
24467;SDS011;12634;50.852;5.676;2023-05-10T11:04:16;6.80;;;4.43;;
24467;SDS011;12634;50.852;5.676;2023-05-10T11:06:46;7.07;;;4.07;;
24467;SDS011;12634;50.852;5.676;2023-05-10T11:09:13;5.68;;;3.88;;
24467;SDS011;12634;50.852;5.676;2023-05-10T11:11:51;6.40;;;4.60;;
24467;SDS011;12634;50.852;5.676;2023-05-10T11:14:20;7.35;;;4.75;;
24467;SDS011;12634;50.852;5.676;2023-05-10T11:16:50;7.07;;;4.63;;
24467;SDS011;12634;50.852;5.676;2023-05-10T11:19:17;6.10;;;3.95;;
24467;SDS011;12634;50.852;5.676;2023-05-10T11:21:45;6.68;;;4.50;;
24467;SDS011;12634;50.852;5.676;2023-05-10T11:24:15;6.07;;;3.97;;
24467;SDS011;12634;50.852;5.676;2023-05-10T11:26:43;6.70;;;4.43;;
24467;SDS011;12634;50.852;5.676;2023-05-10T11:29:11;7.57;;;4.43;;
24467;SDS011;12634;50.852;5.676;2023-05-10T11:31:42;6.90;;;4.50;;
24467;SDS011;12634;50.852;5.676;2023-05-10T11:34:11;8.00;;;4.93;;
24467;SDS011;12634;50.852;5.676;2023-05-10T11:36:50;8.38;;;5.63;;
24467;SDS011;12634;50.852;5.676;2023-05-10T11:39:19;6.57;;;4.57;;
24467;SDS011;12634;50.852;5.676;2023-05-10T11:41:48;6.78;;;4.13;;
24467;SDS011;12634;50.852;5.676;2023-05-10T11:44:15;7.68;;;4.72;;
24467;SDS011;12634;50.852;5.676;2023-05-10T11:46:42;6.60;;;4.28;;
24467;SDS011;12634;50.852;5.676;2023-05-10T11:49:11;6.78;;;4.10;;
24467;SDS011;12634;50.852;5.676;2023-05-10T11:51:38;7.07;;;4.25;;
24467;SDS011;12634;50.852;5.676;2023-05-10T11:54:08;5.40;;;3.75;;
24467;SDS011;12634;50.852;5.676;2023-05-10T11:56:36;5.13;;;3.63;;
24467;SDS011;12634;50.852;5.676;2023-05-10T11:59:03;4.53;;;3.33;;
24467;SDS011;12634;50.852;5.676;2023-05-10T12:01:31;4.93;;;3.58;;
24467;SDS011;12634;50.852;5.676;2023-05-10T12:03:58;5.07;;;3.25;;
24467;SDS011;12634;50.852;5.676;2023-05-10T12:06:29;5.13;;;2.60;;
24467;SDS011;12634;50.852;5.676;2023-05-10T12:08:57;4.45;;;2.70;;
24467;SDS011;12634;50.852;5.676;2023-05-10T12:11:24;4.50;;;2.90;;
24467;SDS011;12634;50.852;5.676;2023-05-10T12:13:52;5.95;;;3.28;;
24467;SDS011;12634;50.852;5.676;2023-05-10T12:16:20;3.58;;;2.15;;
24467;SDS011;12634;50.852;5.676;2023-05-10T12:18:48;4.63;;;2.83;;
24467;SDS011;12634;50.852;5.676;2023-05-10T12:21:16;4.43;;;2.85;;
24467;SDS011;12634;50.852;5.676;2023-05-10T12:23:46;3.60;;;2.45;;
24467;SDS011;12634;50.852;5.676;2023-05-10T12:26:14;4.65;;;2.80;;
24467;SDS011;12634;50.852;5.676;2023-05-10T12:28:42;4.97;;;3.08;;
24467;SDS011;12634;50.852;5.676;2023-05-10T12:31:09;4.68;;;2.25;;
24467;SDS011;12634;50.852;5.676;2023-05-10T12:33:37;1.83;;;1.48;;
24467;SDS011;12634;50.852;5.676;2023-05-10T12:36:06;2.47;;;1.52;;
24467;SDS011;12634;50.852;5.676;2023-05-10T12:38:35;3.33;;;2.00;;
24467;SDS011;12634;50.852;5.676;2023-05-10T12:41:06;2.95;;;1.63;;
24467;SDS011;12634;50.852;5.676;2023-05-10T12:43:35;4.20;;;2.50;;
24467;SDS011;12634;50.852;5.676;2023-05-10T12:46:04;3.95;;;2.70;;
24467;SDS011;12634;50.852;5.676;2023-05-10T12:48:32;4.00;;;2.63;;
24467;SDS011;12634;50.852;5.676;2023-05-10T12:51:00;4.07;;;2.90;;
24467;SDS011;12634;50.852;5.676;2023-05-10T12:53:27;4.20;;;2.42;;
24467;SDS011;12634;50.852;5.676;2023-05-10T12:55:54;3.28;;;2.33;;
24467;SDS011;12634;50.852;5.676;2023-05-10T12:58:23;4.43;;;2.63;;
24467;SDS011;12634;50.852;5.676;2023-05-10T13:00:50;4.32;;;2.30;;
24467;SDS011;12634;50.852;5.676;2023-05-10T13:03:18;3.20;;;2.08;;
24467;SDS011;12634;50.852;5.676;2023-05-10T13:05:45;3.13;;;2.30;;
24467;SDS011;12634;50.852;5.676;2023-05-10T13:08:12;2.70;;;1.83;;
24467;SDS011;12634;50.852;5.676;2023-05-10T13:10:39;3.05;;;2.42;;
24467;SDS011;12634;50.852;5.676;2023-05-10T13:13:07;3.22;;;2.20;;
24467;SDS011;12634;50.852;5.676;2023-05-10T13:15:36;4.18;;;2.33;;
24467;SDS011;12634;50.852;5.676;2023-05-10T13:18:03;3.70;;;2.05;;
24467;SDS011;12634;50.852;5.676;2023-05-10T13:20:30;2.83;;;1.88;;
24467;SDS011;12634;50.852;5.676;2023-05-10T13:22:58;3.42;;;1.85;;
24467;SDS011;12634;50.852;5.676;2023-05-10T13:25:25;3.67;;;1.92;;
24467;SDS011;12634;50.852;5.676;2023-05-10T13:27:52;3.00;;;1.90;;
24467;SDS011;12634;50.852;5.676;2023-05-10T13:30:19;3.00;;;1.90;;
24467;SDS011;12634;50.852;5.676;2023-05-10T13:32:48;3.72;;;2.10;;
24467;SDS011;12634;50.852;5.676;2023-05-10T13:35:15;2.47;;;1.70;;
24467;SDS011;12634;50.852;5.676;2023-05-10T13:37:43;3.05;;;1.75;;
24467;SDS011;12634;50.852;5.676;2023-05-10T13:40:10;2.95;;;1.42;;
24467;SDS011;12634;50.852;5.676;2023-05-10T13:42:37;3.13;;;1.63;;
24467;SDS011;12634;50.852;5.676;2023-05-10T13:45:05;3.00;;;2.00;;
24467;SDS011;12634;50.852;5.676;2023-05-10T13:47:33;3.25;;;2.08;;
24467;SDS011;12634;50.852;5.676;2023-05-10T13:50:01;3.00;;;1.90;;
24467;SDS011;12634;50.852;5.676;2023-05-10T13:52:29;2.92;;;1.95;;
24467;SDS011;12634;50.852;5.676;2023-05-10T13:54:56;3.30;;;1.90;;
24467;SDS011;12634;50.852;5.676;2023-05-10T13:57:23;2.97;;;1.98;;
24467;SDS011;12634;50.852;5.676;2023-05-10T13:59:51;3.40;;;2.30;;
24467;SDS011;12634;50.852;5.676;2023-05-10T14:02:18;3.00;;;1.90;;
24467;SDS011;12634;50.852;5.676;2023-05-10T14:04:45;4.18;;;2.05;;
24467;SDS011;12634;50.852;5.676;2023-05-10T14:07:14;3.20;;;2.20;;
24467;SDS011;12634;50.852;5.676;2023-05-10T14:09:42;3.17;;;1.70;;
24467;SDS011;12634;50.852;5.676;2023-05-10T14:12:10;1.75;;;0.95;;
24467;SDS011;12634;50.852;5.676;2023-05-10T14:14:37;1.50;;;1.00;;
24467;SDS011;12634;50.852;5.676;2023-05-10T14:17:04;0.98;;;0.80;;
24467;SDS011;12634;50.852;5.676;2023-05-10T14:19:31;0.85;;;0.60;;
24467;SDS011;12634;50.852;5.676;2023-05-10T14:21:59;0.60;;;0.47;;
24467;SDS011;12634;50.852;5.676;2023-05-10T14:24:27;1.70;;;0.65;;
24467;SDS011;12634;50.852;5.676;2023-05-10T14:26:55;0.85;;;0.60;;
24467;SDS011;12634;50.852;5.676;2023-05-10T14:29:22;1.02;;;0.60;;
24467;SDS011;12634;50.852;5.676;2023-05-10T14:31:49;0.82;;;0.70;;
24467;SDS011;12634;50.852;5.676;2023-05-10T14:34:16;0.60;;;0.40;;
24467;SDS011;12634;50.852;5.676;2023-05-10T14:36:43;0.85;;;0.60;;
24467;SDS011;12634;50.852;5.676;2023-05-10T14:39:11;1.45;;;0.50;;
24467;SDS011;12634;50.852;5.676;2023-05-10T14:41:40;0.40;;;0.30;;
24467;SDS011;12634;50.852;5.676;2023-05-10T14:44:08;2.55;;;0.60;;
24467;SDS011;12634;50.852;5.676;2023-05-10T14:46:35;1.42;;;0.70;;
24467;SDS011;12634;50.852;5.676;2023-05-10T14:49:02;1.30;;;0.43;;
24467;SDS011;12634;50.852;5.676;2023-05-10T14:51:29;1.67;;;0.30;;